sensor_id;sensor_type;location;lat;lon;timestamp;pressure;altitude;pressure_sealevel;temperature;humidity
7832;BME280;3961;42.058;25.586;2023-01-30T00:01:10;62647.06;;;3.93;100.00
7832;BME280;3961;42.058;25.586;2023-01-30T00:03:37;62637.13;;;3.82;100.00
7832;BME280;3961;42.058;25.586;2023-01-30T00:06:02;62642.84;;;3.87;100.00
7832;BME280;3961;42.058;25.586;2023-01-30T00:08:28;62639.16;;;3.82;100.00
7832;BME280;3961;42.058;25.586;2023-01-30T00:10:53;62641.22;;;3.81;100.00
7832;BME280;3961;42.058;25.586;2023-01-30T00:13:19;62637.44;;;3.80;100.00
7832;BME280;3961;42.058;25.586;2023-01-30T00:15:44;62631.63;;;3.80;100.00
7832;BME280;3961;42.058;25.586;2023-01-30T00:18:11;62639.41;;;3.84;100.00
7832;BME280;3961;42.058;25.586;2023-01-30T00:20:37;62640.88;;;3.83;100.00
7832;BME280;3961;42.058;25.586;2023-01-30T00:23:03;62634.50;;;3.82;100.00
7832;BME280;3961;42.058;25.586;2023-01-30T00:25:28;62622.78;;;3.69;100.00
7832;BME280;3961;42.058;25.586;2023-01-30T00:27:57;62610.75;;;3.59;100.00
7832;BME280;3961;42.058;25.586;2023-01-30T00:30:22;62625.41;;;3.69;100.00
7832;BME280;3961;42.058;25.586;2023-01-30T00:32:56;62603.31;;;3.52;100.00
7832;BME280;3961;42.058;25.586;2023-01-30T00:35:22;62582.13;;;3.33;100.00
7832;BME280;3961;42.058;25.586;2023-01-30T00:37:56;62592.75;;;3.41;100.00
7832;BME280;3961;42.058;25.586;2023-01-30T00:40:23;62598.47;;;3.46;100.00
7832;BME280;3961;42.058;25.586;2023-01-30T00:42:49;62609.03;;;3.57;100.00
7832;BME280;3961;42.058;25.586;2023-01-30T00:45:33;62593.00;;;3.43;100.00
7832;BME280;3961;42.058;25.586;2023-01-30T00:48:17;62556.94;;;3.11;100.00
7832;BME280;3961;42.058;25.586;2023-01-30T00:50:43;62573.88;;;3.24;100.00
7832;BME280;3961;42.058;25.586;2023-01-30T00:53:13;62593.91;;;3.42;100.00
7832;BME280;3961;42.058;25.586;2023-01-30T00:55:39;62600.53;;;3.45;100.00
7832;BME280;3961;42.058;25.586;2023-01-30T00:58:06;62594.72;;;3.45;100.00
7832;BME280;3961;42.058;25.586;2023-01-30T01:00:32;62588.75;;;3.37;100.00
7832;BME280;3961;42.058;25.586;2023-01-30T01:02:57;62580.16;;;3.29;100.00
7832;BME280;3961;42.058;25.586;2023-01-30T01:05:23;62563.47;;;3.19;100.00
7832;BME280;3961;42.058;25.586;2023-01-30T01:07:48;62552.91;;;3.08;100.00
7832;BME280;3961;42.058;25.586;2023-01-30T01:10:14;62534.25;;;2.93;100.00
7832;BME280;3961;42.058;25.586;2023-01-30T01:12:44;62533.22;;;2.88;100.00
7832;BME280;3961;42.058;25.586;2023-01-30T01:15:11;62528.06;;;2.83;100.00
7832;BME280;3961;42.058;25.586;2023-01-30T01:17:38;62529.53;;;2.82;100.00
7832;BME280;3961;42.058;25.586;2023-01-30T01:20:05;62539.28;;;2.91;100.00
7832;BME280;3961;42.058;25.586;2023-01-30T01:22:30;62530.84;;;2.90;100.00
7832;BME280;3961;42.058;25.586;2023-01-30T01:24:56;62544.00;;;3.02;100.00
7832;BME280;3961;42.058;25.586;2023-01-30T01:27:21;62551.28;;;3.01;100.00
7832;BME280;3961;42.058;25.586;2023-01-30T01:29:47;62545.47;;;3.01;100.00
7832;BME280;3961;42.058;25.586;2023-01-30T01:32:12;62556.59;;;3.13;100.00
7832;BME280;3961;42.058;25.586;2023-01-30T01:34:38;62554.06;;;3.09;100.00
7832;BME280;3961;42.058;25.586;2023-01-30T01:37:03;62541.72;;;3.00;100.00
7832;BME280;3961;42.058;25.586;2023-01-30T01:39:29;62538.59;;;2.95;100.00
7832;BME280;3961;42.058;25.586;2023-01-30T01:42:15;62538.38;;;2.92;100.00
7832;BME280;3961;42.058;25.586;2023-01-30T01:47:30;62533.47;;;2.90;100.00
7832;BME280;3961;42.058;25.586;2023-01-30T01:49:58;62522.84;;;2.83;100.00
7832;BME280;3961;42.058;25.586;2023-01-30T01:52:23;62532.00;;;2.91;100.00
7832;BME280;3961;42.058;25.586;2023-01-30T01:54:53;62543.25;;;2.94;100.00
7832;BME280;3961;42.058;25.586;2023-01-30T01:57:26;62519.47;;;2.76;100.00
7832;BME280;3961;42.058;25.586;2023-01-30T02:00:05;62530.94;;;2.86;100.00
7832;BME280;3961;42.058;25.586;2023-01-30T02:02:32;62534.69;;;2.87;100.00
7832;BME280;3961;42.058;25.586;2023-01-30T02:04:59;62563.56;;;3.15;100.00
7832;BME280;3961;42.058;25.586;2023-01-30T02:07:59;62570.91;;;3.26;100.00
7832;BME280;3961;42.058;25.586;2023-01-30T02:10:55;62509.75;;;2.67;100.00
7832;BME280;3961;42.058;25.586;2023-01-30T02:13:22;62533.94;;;2.95;100.00
7832;BME280;3961;42.058;25.586;2023-01-30T02:15:49;62554.38;;;3.07;100.00
7832;BME280;3961;42.058;25.586;2023-01-30T02:18:16;62550.06;;;3.05;100.00
7832;BME280;3961;42.058;25.586;2023-01-30T02:29:26;62568.13;;;3.19;100.00
7832;BME280;3961;42.058;25.586;2023-01-30T02:37:31;62542.53;;;3.03;100.00
7832;BME280;3961;42.058;25.586;2023-01-30T02:43:30;62586.44;;;3.35;100.00
7832;BME280;3961;42.058;25.586;2023-01-30T02:48:38;62572.41;;;3.25;100.00
7832;BME280;3961;42.058;25.586;2023-01-30T02:51:10;62562.41;;;3.14;100.00
7832;BME280;3961;42.058;25.586;2023-01-30T02:53:38;62572.03;;;3.27;100.00
7832;BME280;3961;42.058;25.586;2023-01-30T02:56:05;62560.94;;;3.15;100.00
7832;BME280;3961;42.058;25.586;2023-01-30T02:58:36;62602.75;;;3.52;100.00
7832;BME280;3961;42.058;25.586;2023-01-30T03:12:28;62584.97;;;3.36;100.00
7832;BME280;3961;42.058;25.586;2023-01-30T03:15:12;62599.63;;;3.47;100.00
7832;BME280;3961;42.058;25.586;2023-01-30T03:17:44;62611.31;;;3.59;100.00
7832;BME280;3961;42.058;25.586;2023-01-30T03:20:12;62623.69;;;3.68;100.00
7832;BME280;3961;42.058;25.586;2023-01-30T03:22:38;62621.88;;;3.71;100.00
7832;BME280;3961;42.058;25.586;2023-01-30T03:25:04;62647.75;;;3.89;100.00
7832;BME280;3961;42.058;25.586;2023-01-30T03:27:31;62638.59;;;3.81;100.00
7832;BME280;3961;42.058;25.586;2023-01-30T03:29:57;62607.66;;;3.54;100.00
7832;BME280;3961;42.058;25.586;2023-01-30T03:32:23;62593.56;;;3.44;100.00
7832;BME280;3961;42.058;25.586;2023-01-30T03:34:48;62578.09;;;3.30;100.00
7832;BME280;3961;42.058;25.586;2023-01-30T03:37:14;62578.09;;;3.30;100.00
7832;BME280;3961;42.058;25.586;2023-01-30T03:39:39;62560.38;;;3.14;100.00
7832;BME280;3961;42.058;25.586;2023-01-30T03:42:05;62567.91;;;3.16;100.00
7832;BME280;3961;42.058;25.586;2023-01-30T03:44:30;62561.25;;;3.13;100.00
7832;BME280;3961;42.058;25.586;2023-01-30T03:46:55;62553.81;;;3.06;100.00
7832;BME280;3961;42.058;25.586;2023-01-30T03:49:21;62553.72;;;3.11;100.00
7832;BME280;3961;42.058;25.586;2023-01-30T03:51:46;62547.75;;;3.03;100.00
7832;BME280;3961;42.058;25.586;2023-01-30T03:54:12;62569.84;;;3.20;100.00
7832;BME280;3961;42.058;25.586;2023-01-30T03:56:37;62558.97;;;3.11;100.00
7832;BME280;3961;42.058;25.586;2023-01-30T03:59:03;62532.56;;;2.92;100.00
7832;BME280;3961;42.058;25.586;2023-01-30T04:01:28;62528.31;;;2.86;100.00
7832;BME280;3961;42.058;25.586;2023-01-30T04:03:54;62519.47;;;2.76;100.00
7832;BME280;3961;42.058;25.586;2023-01-30T04:06:19;62512.84;;;2.72;100.00
7832;BME280;3961;42.058;25.586;2023-01-30T04:08:45;62500.81;;;2.61;100.00
7832;BME280;3961;42.058;25.586;2023-01-30T04:11:10;62509.41;;;2.69;100.00
7832;BME280;3961;42.058;25.586;2023-01-30T04:13:36;62523.50;;;2.79;100.00
7832;BME280;3961;42.058;25.586;2023-01-30T04:16:17;62540.31;;;2.96;100.00
7832;BME280;3961;42.058;25.586;2023-01-30T04:18:43;62545.22;;;2.98;100.00
7832;BME280;3961;42.058;25.586;2023-01-30T04:21:09;62535.75;;;2.92;100.00
7832;BME280;3961;42.058;25.586;2023-01-30T04:23:34;62541.72;;;3.00;100.00
7832;BME280;3961;42.058;25.586;2023-01-30T04:26:00;62556.59;;;3.13;100.00
7832;BME280;3961;42.058;25.586;2023-01-30T04:28:25;62541.13;;;2.99;100.00
7832;BME280;3961;42.058;25.586;2023-01-30T04:30:52;62503.13;;;2.63;100.00
7832;BME280;3961;42.058;25.586;2023-01-30T04:33:17;62499.47;;;2.58;100.00
7832;BME280;3961;42.058;25.586;2023-01-30T04:38:17;62489.41;;;2.51;100.00
7832;BME280;3961;42.058;25.586;2023-01-30T04:40:47;62506.22;;;2.68;100.00
7832;BME280;3961;42.058;25.586;2023-01-30T04:43:13;62506.88;;;2.64;100.00
7832;BME280;3961;42.058;25.586;2023-01-30T04:45:42;62483.09;;;2.46;100.00
7832;BME280;3961;42.058;25.586;2023-01-30T04:48:07;62487.69;;;2.50;100.00
7832;BME280;3961;42.058;25.586;2023-01-30T04:50:33;62504.03;;;2.62;100.00
7832;BME280;3961;42.058;25.586;2023-01-30T04:52:59;62497.16;;;2.56;100.00
7832;BME280;3961;42.058;25.586;2023-01-30T04:55:24;62502.53;;;2.63;100.00
7832;BME280;3961;42.058;25.586;2023-01-30T04:57:50;62505.97;;;2.66;100.00
7832;BME280;3961;42.058;25.586;2023-01-30T05:00:15;62502.53;;;2.63;100.00
7832;BME280;3961;42.058;25.586;2023-01-30T05:02:41;62508.28;;;2.68;100.00
7832;BME280;3961;42.058;25.586;2023-01-30T05:05:07;62507.13;;;2.67;100.00
7832;BME280;3961;42.058;25.586;2023-01-30T05:07:32;62489.41;;;2.51;100.00
7832;BME280;3961;42.058;25.586;2023-01-30T05:09:59;62511.47;;;2.68;100.00
7832;BME280;3961;42.058;25.586;2023-01-30T05:12:24;62489.31;;;2.56;100.00
7832;BME280;3961;42.058;25.586;2023-01-30T05:14:50;62499.78;;;2.56;100.00
7832;BME280;3961;42.058;25.586;2023-01-30T05:17:15;62504.59;;;2.62;100.00
7832;BME280;3961;42.058;25.586;2023-01-30T05:19:41;62504.03;;;2.62;100.00
7832;BME280;3961;42.058;25.586;2023-01-30T05:22:06;62511.22;;;2.66;100.00
7832;BME280;3961;42.058;25.586;2023-01-30T05:24:32;62508.03;;;2.65;100.00
7832;BME280;3961;42.058;25.586;2023-01-30T05:26:57;62503.13;;;2.63;100.00
7832;BME280;3961;42.058;25.586;2023-01-30T05:29:23;62486.53;;;2.49;100.00
7832;BME280;3961;42.058;25.586;2023-01-30T05:31:48;62483.75;;;2.42;100.00
7832;BME280;3961;42.058;25.586;2023-01-30T05:34:13;62493.41;;;2.55;100.00
7832;BME280;3961;42.058;25.586;2023-01-30T05:36:39;62491.13;;;2.53;100.00
7832;BME280;3961;42.058;25.586;2023-01-30T05:39:05;62473.88;;;2.42;100.00
7832;BME280;3961;42.058;25.586;2023-01-30T05:41:30;62468.56;;;2.30;100.00
7832;BME280;3961;42.058;25.586;2023-01-30T05:43:55;62465.94;;;2.30;100.00
7832;BME280;3961;42.058;25.586;2023-01-30T05:46:21;62471.66;;;2.35;100.00
7832;BME280;3961;42.058;25.586;2023-01-30T05:48:47;62474.84;;;2.36;100.00
7832;BME280;3961;42.058;25.586;2023-01-30T05:51:30;62474.19;;;2.40;100.00
7832;BME280;3961;42.058;25.586;2023-01-30T05:53:55;62489.41;;;2.51;100.00
7832;BME280;3961;42.058;25.586;2023-01-30T05:56:21;62485.16;;;2.45;100.00
7832;BME280;3961;42.058;25.586;2023-01-30T05:58:52;62477.97;;;2.41;100.00
7832;BME280;3961;42.058;25.586;2023-01-30T06:01:19;62477.38;;;2.41;100.00
7832;BME280;3961;42.058;25.586;2023-01-30T06:03:44;62461.59;;;2.29;100.00
7832;BME280;3961;42.058;25.586;2023-01-30T06:06:11;62450.50;;;2.17;100.00
7832;BME280;3961;42.058;25.586;2023-01-30T06:08:36;62453.44;;;2.15;100.00
7832;BME280;3961;42.058;25.586;2023-01-30T06:11:05;62447.66;;;2.14;100.00
7832;BME280;3961;42.058;25.586;2023-01-30T06:13:30;62437.84;;;2.10;100.00
7832;BME280;3961;42.058;25.586;2023-01-30T06:15:56;62437.84;;;2.10;100.00
7832;BME280;3961;42.058;25.586;2023-01-30T06:18:21;62448.22;;;2.15;100.00
7832;BME280;3961;42.058;25.586;2023-01-30T06:20:48;62439.41;;;2.05;100.00
7832;BME280;3961;42.058;25.586;2023-01-30T06:23:14;62433.34;;;2.01;100.00
7832;BME280;3961;42.058;25.586;2023-01-30T06:25:47;62435.06;;;2.03;100.00
7832;BME280;3961;42.058;25.586;2023-01-30T06:28:14;62441.34;;;2.09;100.00
7832;BME280;3961;42.058;25.586;2023-01-30T06:30:40;62448.53;;;2.13;100.00
7832;BME280;3961;42.058;25.586;2023-01-30T06:33:06;62446.50;;;2.13;100.00
7832;BME280;3961;42.058;25.586;2023-01-30T06:35:32;62448.78;;;2.15;100.00
7832;BME280;3961;42.058;25.586;2023-01-30T06:37:58;62451.97;;;2.16;100.00
7832;BME280;3961;42.058;25.586;2023-01-30T06:40:23;62445.34;;;2.12;100.00
7832;BME280;3961;42.058;25.586;2023-01-30T06:42:49;62457.69;;;2.21;100.00
7832;BME280;3961;42.058;25.586;2023-01-30T06:45:17;62465.69;;;2.28;100.00
7832;BME280;3961;42.058;25.586;2023-01-30T06:47:48;62455.09;;;2.21;100.00
7832;BME280;3961;42.058;25.586;2023-01-30T06:50:16;62457.94;;;2.23;100.00
7832;BME280;3961;42.058;25.586;2023-01-30T06:52:44;62456.47;;;2.24;100.00
7832;BME280;3961;42.058;25.586;2023-01-30T06:55:11;62462.19;;;2.29;100.00
7832;BME280;3961;42.058;25.586;2023-01-30T06:57:37;62457.06;;;2.25;100.00
7832;BME280;3961;42.058;25.586;2023-01-30T07:00:07;62461.94;;;2.27;100.00
7832;BME280;3961;42.058;25.586;2023-01-30T07:02:33;62464.78;;;2.29;100.00
7832;BME280;3961;42.058;25.586;2023-01-30T07:05:04;62423.88;;;1.95;100.00
7832;BME280;3961;42.058;25.586;2023-01-30T07:07:31;62442.81;;;2.08;100.00
7832;BME280;3961;42.058;25.586;2023-01-30T07:09:57;62476.00;;;2.37;100.00
7832;BME280;3961;42.058;25.586;2023-01-30T07:12:25;62474.28;;;2.35;100.00
7832;BME280;3961;42.058;25.586;2023-01-30T07:14:51;62489.16;;;2.49;100.00
7832;BME280;3961;42.058;25.586;2023-01-30T07:17:17;62482.22;;;2.47;100.00
7832;BME280;3961;42.058;25.586;2023-01-30T07:19:43;62492.03;;;2.51;100.00
7832;BME280;3961;42.058;25.586;2023-01-30T07:22:09;62503.69;;;2.64;100.00
7832;BME280;3961;42.058;25.586;2023-01-30T07:24:34;62640.56;;;3.85;100.00
7832;BME280;3961;42.058;25.586;2023-01-30T07:27:00;62676.31;;;4.19;100.00
7832;BME280;3961;42.058;25.586;2023-01-30T07:29:25;62549.72;;;3.07;100.00
7832;BME280;3961;42.058;25.586;2023-01-30T07:31:51;62537.13;;;2.96;100.00
7832;BME280;3961;42.058;25.586;2023-01-30T07:34:16;62513.19;;;2.70;100.00
7832;BME280;3961;42.058;25.586;2023-01-30T07:36:42;62483.94;;;2.49;100.00
7832;BME280;3961;42.058;25.586;2023-01-30T07:39:07;62480.56;;;2.41;100.00
7832;BME280;3961;42.058;25.586;2023-01-30T07:41:34;62494.31;;;2.53;100.00
7832;BME280;3961;42.058;25.586;2023-01-30T07:44:00;62474.53;;;2.38;100.00
7832;BME280;3961;42.058;25.586;2023-01-30T07:46:26;62494.56;;;2.56;100.00
7832;BME280;3961;42.058;25.586;2023-01-30T07:49:02;62513.44;;;2.73;100.00
7832;BME280;3961;42.058;25.586;2023-01-30T07:51:27;62516.28;;;2.75;100.00
7832;BME280;3961;42.058;25.586;2023-01-30T07:53:53;62516.28;;;2.75;100.00
7832;BME280;3961;42.058;25.586;2023-01-30T07:56:19;62533.47;;;2.90;100.00
7832;BME280;3961;42.058;25.586;2023-01-30T07:58:46;62542.59;;;2.98;100.00
7832;BME280;3961;42.058;25.586;2023-01-30T08:01:12;62557.50;;;3.12;100.00
7832;BME280;3961;42.058;25.586;2023-01-30T08:03:38;62584.41;;;3.35;100.00
7832;BME280;3961;42.058;25.586;2023-01-30T08:06:03;62591.84;;;3.42;100.00
7832;BME280;3961;42.058;25.586;2023-01-30T08:08:29;62613.28;;;3.63;100.00
7832;BME280;3961;42.058;25.586;2023-01-30T08:10:54;62615.81;;;3.68;100.00
7832;BME280;3961;42.058;25.586;2023-01-30T08:13:20;62622.78;;;3.69;100.00
7832;BME280;3961;42.058;25.586;2023-01-30T08:15:45;62656.00;;;3.99;100.00
7832;BME280;3961;42.058;25.586;2023-01-30T08:18:11;62681.56;;;4.19;100.00
7832;BME280;3961;42.058;25.586;2023-01-30T08:20:36;62700.72;;;4.38;100.00
7832;BME280;3961;42.058;25.586;2023-01-30T08:23:02;62722.25;;;4.55;100.00
7832;BME280;3961;42.058;25.586;2023-01-30T08:25:28;62711.97;;;4.46;100.00
7832;BME280;3961;42.058;25.586;2023-01-30T08:27:54;62744.06;;;4.75;100.00
7832;BME280;3961;42.058;25.586;2023-01-30T08:30:20;62760.59;;;4.94;100.00
7832;BME280;3961;42.058;25.586;2023-01-30T08:32:46;62786.19;;;5.14;100.00
7832;BME280;3961;42.058;25.586;2023-01-30T08:35:12;62771.03;;;4.98;100.00
7832;BME280;3961;42.058;25.586;2023-01-30T08:37:39;62784.72;;;5.15;100.00
7832;BME280;3961;42.058;25.586;2023-01-30T08:40:06;62812.25;;;5.39;100.00
7832;BME280;3961;42.058;25.586;2023-01-30T08:42:31;63041.09;;;7.37;100.00
7832;BME280;3961;42.058;25.586;2023-01-30T08:44:57;63231.75;;;9.05;100.00
7832;BME280;3961;42.058;25.586;2023-01-30T08:47:24;63307.56;;;9.74;100.00
7832;BME280;3961;42.058;25.586;2023-01-30T08:49:49;63445.53;;;10.95;99.20
7832;BME280;3961;42.058;25.586;2023-01-30T08:52:17;63447.03;;;10.94;95.98
7832;BME280;3961;42.058;25.586;2023-01-30T08:54:43;63280.09;;;9.52;99.80
7832;BME280;3961;42.058;25.586;2023-01-30T08:57:08;63434.09;;;10.81;99.78
7832;BME280;3961;42.058;25.586;2023-01-30T08:59:34;63428.78;;;10.81;95.30
7832;BME280;3961;42.058;25.586;2023-01-30T09:02:00;63486.56;;;11.31;95.79
7832;BME280;3961;42.058;25.586;2023-01-30T09:04:28;63258.03;;;9.26;99.98
7832;BME280;3961;42.058;25.586;2023-01-30T09:06:53;63160.31;;;8.42;100.00
7832;BME280;3961;42.058;25.586;2023-01-30T09:09:19;63053.19;;;7.48;100.00
7832;BME280;3961;42.058;25.586;2023-01-30T09:11:45;62967.72;;;6.74;100.00
7832;BME280;3961;42.058;25.586;2023-01-30T09:14:13;62938.41;;;6.49;100.00
7832;BME280;3961;42.058;25.586;2023-01-30T09:16:38;62908.28;;;6.20;100.00
7832;BME280;3961;42.058;25.586;2023-01-30T09:19:04;62917.72;;;6.30;100.00
7832;BME280;3961;42.058;25.586;2023-01-30T09:21:29;62901.63;;;6.16;100.00
7832;BME280;3961;42.058;25.586;2023-01-30T09:23:56;62890.81;;;6.02;100.00
7832;BME280;3961;42.058;25.586;2023-01-30T09:26:22;62890.47;;;6.04;100.00
7832;BME280;3961;42.058;25.586;2023-01-30T09:28:48;62895.06;;;6.08;100.00
7832;BME280;3961;42.058;25.586;2023-01-30T09:31:13;62895.66;;;6.09;100.00
7832;BME280;3961;42.058;25.586;2023-01-30T09:33:39;62883.91;;;5.96;100.00
7832;BME280;3961;42.058;25.586;2023-01-30T09:36:04;62859.09;;;5.79;100.00
7832;BME280;3961;42.058;25.586;2023-01-30T09:38:30;62870.59;;;5.89;100.00
7832;BME280;3961;42.058;25.586;2023-01-30T09:51:46;62868.28;;;5.87;100.00
7832;BME280;3961;42.058;25.586;2023-01-30T09:54:20;62846.72;;;5.70;100.00
7832;BME280;3961;42.058;25.586;2023-01-30T09:56:56;62843.34;;;5.62;100.00
7832;BME280;3961;42.058;25.586;2023-01-30T09:59:26;62849.91;;;5.70;100.00
7832;BME280;3961;42.058;25.586;2023-01-30T10:04:57;62882.50;;;5.92;100.00
7832;BME280;3961;42.058;25.586;2023-01-30T10:10:20;62879.22;;;5.96;100.00
7832;BME280;3961;42.058;25.586;2023-01-30T10:23:57;62868.06;;;5.84;100.00
7832;BME280;3961;42.058;25.586;2023-01-30T10:26:27;62864.03;;;5.81;100.00
7832;BME280;3961;42.058;25.586;2023-01-30T10:31:22;62907.47;;;6.17;100.00
7832;BME280;3961;42.058;25.586;2023-01-30T10:34:06;62892.44;;;6.08;100.00
7832;BME280;3961;42.058;25.586;2023-01-30T10:36:56;62904.59;;;6.14;100.00
7832;BME280;3961;42.058;25.586;2023-01-30T10:39:58;62919.44;;;6.32;100.00
7832;BME280;3961;42.058;25.586;2023-01-30T10:42:51;62935.28;;;6.44;100.00
7832;BME280;3961;42.058;25.586;2023-01-30T10:45:28;62892.69;;;6.11;100.00
7832;BME280;3961;42.058;25.586;2023-01-30T10:48:11;62891.06;;;6.04;100.00
7832;BME280;3961;42.058;25.586;2023-01-30T10:50:47;62906.22;;;6.20;100.00
7832;BME280;3961;42.058;25.586;2023-01-30T10:56:05;62918.97;;;6.27;100.00
7832;BME280;3961;42.058;25.586;2023-01-30T10:58:43;62901.97;;;6.14;100.00
7832;BME280;3961;42.058;25.586;2023-01-30T11:01:37;62910.56;;;6.22;100.00
7832;BME280;3961;42.058;25.586;2023-01-30T11:04:18;62910.81;;;6.24;100.00
7832;BME280;3961;42.058;25.586;2023-01-30T11:06:48;62911.16;;;6.22;100.00
7832;BME280;3961;42.058;25.586;2023-01-30T11:09:14;62883.81;;;6.00;100.00
7832;BME280;3961;42.058;25.586;2023-01-30T11:14:11;62920.91;;;6.31;100.00
7832;BME280;3961;42.058;25.586;2023-01-30T11:16:47;62927.00;;;6.34;100.00
7832;BME280;3961;42.058;25.586;2023-01-30T11:19:15;62910.00;;;6.21;100.00
7832;BME280;3961;42.058;25.586;2023-01-30T11:21:47;62895.31;;;6.11;100.00
7832;BME280;3961;42.058;25.586;2023-01-30T11:24:19;62890.47;;;6.04;100.00
7832;BME280;3961;42.058;25.586;2023-01-30T11:26:46;62943.09;;;6.48;100.00
7832;BME280;3961;42.058;25.586;2023-01-30T11:31:48;62977.16;;;6.85;100.00
7832;BME280;3961;42.058;25.586;2023-01-30T11:34:17;62972.09;;;6.76;100.00
7832;BME280;3961;42.058;25.586;2023-01-30T11:36:44;62970.59;;;6.77;100.00
7832;BME280;3961;42.058;25.586;2023-01-30T11:41:45;62912.28;;;6.23;100.00
7832;BME280;3961;42.058;25.586;2023-01-30T11:44:29;62930.94;;;6.42;100.00
7832;BME280;3961;42.058;25.586;2023-01-30T11:47:00;62943.91;;;6.51;100.00
7832;BME280;3961;42.058;25.586;2023-01-30T11:49:31;62936.13;;;6.47;100.00
7832;BME280;3961;42.058;25.586;2023-01-30T11:51:58;62953.00;;;6.64;100.00
7832;BME280;3961;42.058;25.586;2023-01-30T11:54:32;62957.13;;;6.63;100.00
7832;BME280;3961;42.058;25.586;2023-01-30T11:57:01;62982.66;;;6.88;100.00
7832;BME280;3961;42.058;25.586;2023-01-30T11:59:33;63020.97;;;7.19;100.00
7832;BME280;3961;42.058;25.586;2023-01-30T12:02:19;63017.50;;;7.16;100.00
7832;BME280;3961;42.058;25.586;2023-01-30T12:04:48;63004.28;;;7.04;98.79
7832;BME280;3961;42.058;25.586;2023-01-30T12:07:26;63035.69;;;7.30;96.70
7832;BME280;3961;42.058;25.586;2023-01-30T12:09:53;63033.13;;;7.25;95.45
7832;BME280;3961;42.058;25.586;2023-01-30T12:12:31;63027.28;;;7.25;99.16
7832;BME280;3961;42.058;25.586;2023-01-30T12:17:47;63006.84;;;7.09;96.00
7832;BME280;3961;42.058;25.586;2023-01-30T12:20:43;62993.69;;;6.93;97.14
7832;BME280;3961;42.058;25.586;2023-01-30T12:28:31;62965.19;;;6.70;97.39
7832;BME280;3961;42.058;25.586;2023-01-30T12:33:32;62911.72;;;6.23;97.13
7832;BME280;3961;42.058;25.586;2023-01-30T12:41:55;62919.44;;;6.32;96.79
7832;BME280;3961;42.058;25.586;2023-01-30T12:44:27;62938.16;;;6.46;96.20
7832;BME280;3961;42.058;25.586;2023-01-30T12:47:21;62945.63;;;6.53;97.49
7832;BME280;3961;42.058;25.586;2023-01-30T12:53:05;62939.00;;;6.49;97.87
7832;BME280;3961;42.058;25.586;2023-01-30T12:58:15;62930.47;;;6.37;97.69
7832;BME280;3961;42.058;25.586;2023-01-30T13:03:22;63340.19;;;10.00;100.00
7832;BME280;3961;42.058;25.586;2023-01-30T13:08:59;63110.75;;;7.98;90.79
7832;BME280;3961;42.058;25.586;2023-01-30T13:19:26;62870.34;;;5.86;96.44
7832;BME280;3961;42.058;25.586;2023-01-30T13:22:14;62876.44;;;5.89;96.85
7832;BME280;3961;42.058;25.586;2023-01-30T13:24:48;62910.91;;;6.20;97.38
7832;BME280;3961;42.058;25.586;2023-01-30T13:27:20;62926.44;;;6.33;98.02
7832;BME280;3961;42.058;25.586;2023-01-30T13:29:47;63179.31;;;8.59;100.00
7832;BME280;3961;42.058;25.586;2023-01-30T13:35:03;63007.97;;;7.10;90.86
7832;BME280;3961;42.058;25.586;2023-01-30T13:37:31;62957.72;;;6.63;91.95
7832;BME280;3961;42.058;25.586;2023-01-30T13:45:34;62884.97;;;6.01;97.18
7832;BME280;3961;42.058;25.586;2023-01-30T13:48:14;62883.34;;;5.95;95.33
7832;BME280;3961;42.058;25.586;2023-01-30T13:50:58;62857.72;;;5.75;93.25
7832;BME280;3961;42.058;25.586;2023-01-30T13:56:25;62880.38;;;5.97;94.03
7832;BME280;3961;42.058;25.586;2023-01-30T13:59:02;62873.53;;;5.87;94.09
7832;BME280;3961;42.058;25.586;2023-01-30T14:09:51;62856.81;;;5.77;96.91
7832;BME280;3961;42.058;25.586;2023-01-30T14:12:32;62862.56;;;5.82;97.01
7832;BME280;3961;42.058;25.586;2023-01-30T14:20:35;62879.78;;;5.97;96.22
7832;BME280;3961;42.058;25.586;2023-01-30T14:23:33;62871.47;;;5.87;94.14
7832;BME280;3961;42.058;25.586;2023-01-30T14:26:00;62870.59;;;5.89;94.62
7832;BME280;3961;42.058;25.586;2023-01-30T14:31:01;62898.75;;;6.14;95.22
7832;BME280;3961;42.058;25.586;2023-01-30T14:48:53;62877.81;;;5.93;94.16
7832;BME280;3961;42.058;25.586;2023-01-30T15:04:23;62838.66;;;5.63;95.30
7832;BME280;3961;42.058;25.586;2023-01-30T15:06:50;62850.81;;;5.69;94.72
7832;BME280;3961;42.058;25.586;2023-01-30T15:09:18;62855.66;;;5.76;94.54
7832;BME280;3961;42.058;25.586;2023-01-30T15:11:55;62834.06;;;5.59;94.88
7832;BME280;3961;42.058;25.586;2023-01-30T15:14:30;62852.31;;;5.68;94.52
7832;BME280;3961;42.058;25.586;2023-01-30T15:25:36;62836.13;;;5.58;95.65
7832;BME280;3961;42.058;25.586;2023-01-30T15:28:18;62828.91;;;5.54;94.71
7832;BME280;3961;42.058;25.586;2023-01-30T15:31:15;62827.84;;;5.49;94.37
7832;BME280;3961;42.058;25.586;2023-01-30T15:33:48;62803.41;;;5.29;93.63
7832;BME280;3961;42.058;25.586;2023-01-30T15:36:28;62801.78;;;5.23;95.41
7832;BME280;3961;42.058;25.586;2023-01-30T15:39:00;62782.75;;;5.11;95.77
7832;BME280;3961;42.058;25.586;2023-01-30T15:41:28;62793.41;;;5.18;96.39
7832;BME280;3961;42.058;25.586;2023-01-30T15:46:56;62787.69;;;5.13;97.23
7832;BME280;3961;42.058;25.586;2023-01-30T15:49:33;62796.63;;;5.19;98.06
7832;BME280;3961;42.058;25.586;2023-01-30T15:52:03;62781.03;;;5.10;98.41
7832;BME280;3961;42.058;25.586;2023-01-30T15:54:29;62777.34;;;5.04;99.37
7832;BME280;3961;42.058;25.586;2023-01-30T15:56:57;62748.00;;;4.83;97.96
7832;BME280;3961;42.058;25.586;2023-01-30T15:59:33;62755.78;;;4.87;98.65
7832;BME280;3961;42.058;25.586;2023-01-30T16:02:19;62740.63;;;4.71;98.32
7832;BME280;3961;42.058;25.586;2023-01-30T16:04:46;62732.25;;;4.66;98.85
7832;BME280;3961;42.058;25.586;2023-01-30T16:07:25;62726.28;;;4.59;97.93
7832;BME280;3961;42.058;25.586;2023-01-30T16:09:57;62701.63;;;4.37;99.39
7832;BME280;3961;42.058;25.586;2023-01-30T16:12:27;62701.38;;;4.34;99.02
7832;BME280;3961;42.058;25.586;2023-01-30T16:14:54;62701.63;;;4.37;98.72
7832;BME280;3961;42.058;25.586;2023-01-30T16:17:31;62713.09;;;4.47;98.95
7832;BME280;3961;42.058;25.586;2023-01-30T16:19:59;62707.13;;;4.39;98.20
7832;BME280;3961;42.058;25.586;2023-01-30T16:22:30;62701.63;;;4.37;97.88
7832;BME280;3961;42.058;25.586;2023-01-30T16:24:57;62698.75;;;4.34;98.57